createdAt,value
2018-03-02T00:01:05.637Z,66.24
2018-03-02T00:03:34.034Z,66.18
2018-03-02T00:06:02.427Z,66.32
2018-03-02T00:08:30.773Z,66.32
2018-03-02T00:10:59.092Z,66.33
2018-03-02T00:13:27.452Z,66.38
2018-03-02T00:15:55.793Z,66.24
2018-03-02T00:18:24.204Z,66.23
2018-03-02T00:20:52.519Z,66.39
2018-03-02T00:23:20.861Z,66.32
2018-03-02T00:25:49.275Z,66.34
2018-03-02T00:28:17.624Z,66.36
2018-03-02T00:30:46.057Z,66.31
2018-03-02T00:33:14.449Z,66.36
2018-03-02T00:35:42.797Z,66.21
2018-03-02T00:38:11.154Z,66.69
2018-03-02T00:40:39.517Z,66.62
2018-03-02T00:43:08.352Z,66.79
2018-03-02T00:45:36.702Z,66.61
2018-03-02T00:48:05.098Z,66.70
2018-03-02T00:50:33.462Z,66.38
2018-03-02T00:53:01.816Z,66.67
2018-03-02T00:55:30.202Z,66.49
2018-03-02T00:57:58.526Z,66.29
2018-03-02T01:00:26.864Z,66.38
2018-03-02T01:02:55.200Z,66.49
2018-03-02T01:05:23.642Z,66.75
2018-03-02T01:07:52.058Z,66.78
2018-03-02T01:10:20.404Z,67.01
2018-03-02T01:12:48.847Z,67.05
2018-03-02T01:15:17.208Z,67.30
2018-03-02T01:17:45.603Z,67.23
2018-03-02T01:20:13.947Z,67.25
2018-03-02T01:22:42.375Z,67.23
2018-03-02T01:25:11.114Z,67.48
2018-03-02T01:27:39.447Z,67.59
2018-03-02T01:30:07.778Z,67.78
2018-03-02T01:32:36.120Z,67.83
2018-03-02T01:35:04.448Z,67.83
2018-03-02T01:37:32.860Z,67.93
2018-03-02T01:40:01.227Z,68.11
2018-03-02T01:42:29.578Z,68.18
2018-03-02T01:44:57.969Z,68.21
2018-03-02T01:47:26.409Z,68.21
2018-03-02T01:49:54.767Z,68.13
2018-03-02T01:52:23.187Z,68.23
2018-03-02T01:54:51.550Z,68.23
2018-03-02T01:57:19.972Z,68.28
2018-03-02T01:59:48.372Z,68.25
2018-03-02T02:02:16.741Z,68.47
2018-03-02T02:04:45.083Z,68.45
2018-03-02T02:07:13.443Z,68.67
2018-03-02T02:09:41.804Z,69.01
2018-03-02T02:12:10.147Z,68.83
2018-03-02T02:14:38.500Z,68.61
2018-03-02T02:17:06.856Z,68.88
2018-03-02T02:19:35.297Z,68.99
2018-03-02T02:22:03.705Z,69.00
2018-03-02T02:24:32.070Z,69.06
2018-03-02T02:27:00.393Z,69.01
2018-03-02T02:29:28.728Z,69.00
2018-03-02T02:31:57.146Z,69.11
2018-03-02T02:34:25.556Z,69.15
2018-03-02T02:36:53.936Z,69.00
2018-03-02T02:39:22.285Z,68.90
2018-03-02T02:41:50.678Z,69.00
2018-03-02T02:44:19.011Z,68.98
2018-03-02T02:46:47.746Z,69.16
2018-03-02T02:49:16.105Z,69.21
2018-03-02T02:51:44.436Z,69.24
2018-03-02T02:54:12.805Z,69.45
2018-03-02T02:56:41.199Z,69.93
2018-03-02T02:59:09.547Z,69.81
2018-03-02T03:01:37.870Z,69.76
2018-03-02T03:04:06.212Z,69.67
2018-03-02T03:06:34.546Z,69.93
2018-03-02T03:09:02.876Z,69.97
2018-03-02T03:11:31.224Z,69.95
2018-03-02T03:13:59.558Z,69.78
2018-03-02T03:16:27.943Z,70.06
2018-03-02T03:18:56.265Z,70.23
2018-03-02T03:21:24.744Z,70.20
2018-03-02T03:23:53.060Z,70.16
2018-03-02T03:26:21.507Z,69.99
2018-03-02T03:28:49.865Z,69.97
2018-03-02T03:31:18.368Z,70.10
2018-03-02T03:33:46.705Z,70.06
2018-03-02T03:36:15.064Z,70.06
2018-03-02T03:38:43.393Z,70.53
2018-03-02T03:41:11.733Z,70.15
2018-03-02T03:43:40.059Z,70.33
2018-03-02T03:46:08.522Z,70.18
2018-03-02T03:48:36.853Z,70.24
2018-03-02T03:51:05.191Z,70.32
2018-03-02T03:53:33.530Z,70.28
2018-03-02T03:56:01.872Z,70.21
2018-03-02T03:58:30.216Z,70.50
2018-03-02T04:00:58.565Z,70.21
2018-03-02T04:03:26.918Z,70.52
2018-03-02T04:05:55.258Z,70.63
2018-03-02T04:08:23.629Z,70.92
2018-03-02T04:10:52.513Z,70.76
2018-03-02T04:13:20.951Z,71.21
2018-03-02T04:15:49.605Z,71.23
2018-03-02T04:18:18.482Z,71.15
2018-03-02T04:20:47.068Z,71.37
2018-03-02T04:23:15.396Z,71.64
2018-03-02T04:25:43.733Z,71.83
2018-03-02T04:28:12.409Z,71.85
2018-03-02T04:30:40.777Z,71.79
2018-03-02T04:33:09.214Z,72.03
2018-03-02T04:35:37.596Z,72.20
2018-03-02T04:38:05.938Z,72.08
2018-03-02T04:40:34.289Z,72.11
2018-03-02T04:43:02.626Z,72.02
2018-03-02T04:45:30.958Z,72.18
2018-03-02T04:47:59.297Z,72.02
2018-03-02T04:50:27.677Z,72.49
2018-03-02T04:52:56.000Z,72.12
2018-03-02T04:55:24.412Z,72.17
2018-03-02T04:57:52.744Z,72.42
2018-03-02T05:00:21.088Z,72.36
2018-03-02T05:02:49.421Z,72.21
2018-03-02T05:05:17.810Z,72.11
2018-03-02T05:07:47.123Z,72.55
2018-03-02T05:10:15.505Z,72.39
2018-03-02T05:12:43.890Z,72.50
2018-03-02T05:15:12.234Z,72.37
2018-03-02T05:17:40.571Z,72.52
2018-03-02T05:20:08.921Z,72.51
2018-03-02T05:22:37.258Z,72.42
2018-03-02T05:25:05.640Z,72.59
2018-03-02T05:27:33.977Z,72.75
2018-03-02T05:30:02.422Z,72.86
2018-03-02T05:32:30.870Z,73.19
2018-03-02T05:34:59.239Z,72.95
2018-03-02T05:37:27.621Z,73.17
2018-03-02T05:39:55.964Z,73.11
2018-03-02T05:42:24.329Z,75.06
2018-03-02T05:44:52.671Z,77.05
2018-03-02T05:47:21.029Z,73.89
2018-03-02T05:49:49.336Z,69.73
2018-03-02T05:52:17.677Z,68.87
2018-03-02T05:54:45.999Z,69.05
2018-03-02T05:57:14.441Z,69.37
2018-03-02T05:59:42.771Z,70.58
2018-03-02T06:02:11.123Z,70.84
2018-03-02T06:04:39.517Z,71.51
2018-03-02T06:07:07.923Z,71.73
2018-03-02T06:09:36.252Z,71.82
2018-03-02T06:12:04.631Z,71.85
2018-03-02T06:14:32.962Z,71.91
2018-03-02T06:17:01.296Z,71.85
2018-03-02T06:19:29.667Z,71.44
2018-03-02T06:21:58.108Z,70.76
2018-03-02T06:24:26.475Z,69.60
2018-03-02T06:26:54.861Z,68.82
2018-03-02T06:29:23.218Z,67.58
2018-03-02T06:31:51.626Z,66.04
2018-03-02T06:34:20.046Z,64.67
2018-03-02T06:36:48.410Z,64.03
2018-03-02T06:39:16.754Z,63.49
2018-03-02T06:41:45.086Z,63.63
2018-03-02T06:44:13.487Z,63.89
2018-03-02T06:46:41.827Z,64.46
2018-03-02T06:49:10.154Z,65.19
2018-03-02T06:51:38.511Z,64.81
2018-03-02T06:54:06.947Z,64.54
2018-03-02T06:56:35.338Z,64.55
2018-03-02T06:59:03.737Z,63.83
2018-03-02T07:01:32.075Z,63.48
2018-03-02T07:04:00.410Z,63.26
2018-03-02T07:06:28.761Z,63.26
2018-03-02T07:08:57.121Z,63.13
2018-03-02T07:11:25.524Z,63.38
2018-03-02T07:13:53.916Z,62.22
2018-03-02T07:16:22.292Z,62.24
2018-03-02T07:18:50.670Z,61.52
2018-03-02T07:21:18.986Z,60.89
2018-03-02T07:23:47.372Z,60.05
2018-03-02T07:26:15.705Z,59.24
2018-03-02T07:28:44.042Z,57.68
2018-03-02T07:31:12.426Z,56.60
2018-03-02T07:33:40.758Z,53.71
2018-03-02T07:36:09.096Z,51.93
2018-03-02T07:38:37.499Z,50.20
2018-03-02T07:41:05.830Z,49.48
2018-03-02T07:43:34.269Z,50.63
2018-03-02T07:46:02.584Z,51.78
2018-03-02T07:48:30.910Z,52.57
2018-03-02T07:50:59.258Z,53.04
2018-03-02T07:53:27.596Z,53.87
2018-03-02T07:55:55.948Z,53.98
2018-03-02T07:58:24.299Z,53.48
2018-03-02T08:00:52.658Z,51.47
2018-03-02T08:03:21.071Z,47.87
2018-03-02T08:05:49.529Z,47.41
2018-03-02T08:08:17.853Z,44.68
2018-03-02T08:10:46.207Z,43.46
2018-03-02T08:13:14.536Z,42.85
2018-03-02T08:15:42.986Z,41.25
2018-03-02T08:18:11.321Z,39.94
2018-03-02T08:20:39.657Z,39.93
2018-03-02T08:23:07.971Z,39.48
2018-03-02T08:25:36.285Z,39.07
2018-03-02T08:28:04.628Z,37.42
2018-03-02T08:30:33.027Z,38.38
2018-03-02T08:33:01.357Z,38.05
2018-03-02T08:35:29.681Z,37.68
2018-03-02T08:37:58.014Z,39.06
2018-03-02T08:40:26.334Z,38.46
2018-03-02T08:42:54.669Z,37.67
2018-03-02T08:45:23.015Z,36.41
2018-03-02T08:47:51.460Z,35.61
2018-03-02T08:50:19.861Z,36.67
2018-03-02T08:52:48.166Z,35.29
2018-03-02T08:55:16.584Z,35.30
2018-03-02T08:57:44.941Z,35.99
2018-03-02T09:00:13.240Z,37.45
2018-03-02T09:02:41.562Z,38.14
2018-03-02T09:05:09.894Z,37.88
2018-03-02T09:07:38.207Z,37.97
2018-03-02T09:10:06.696Z,37.80
2018-03-02T09:12:34.977Z,38.18
2018-03-02T09:15:03.362Z,37.68
2018-03-02T09:17:31.751Z,36.77
2018-03-02T09:20:00.151Z,37.37
2018-03-02T09:22:28.472Z,37.24
2018-03-02T09:24:56.812Z,35.64
2018-03-02T09:27:25.126Z,36.47
2018-03-02T09:29:53.440Z,37.12
2018-03-02T09:32:21.777Z,37.24
2018-03-02T09:34:50.103Z,37.53
2018-03-02T09:37:18.440Z,36.62
2018-03-02T09:39:46.868Z,36.01
2018-03-02T09:42:15.287Z,36.07
2018-03-02T09:44:43.666Z,36.20
2018-03-02T09:47:12.005Z,36.58
2018-03-02T09:49:40.326Z,35.87
2018-03-02T09:52:08.738Z,35.69
2018-03-02T09:54:37.053Z,35.29
2018-03-02T09:57:05.669Z,35.58
2018-03-02T09:59:34.006Z,36.41
2018-03-02T10:02:02.328Z,36.29
2018-03-02T10:04:30.689Z,36.10
2018-03-02T10:06:59.099Z,35.25
2018-03-02T10:09:27.534Z,36.08
2018-03-02T10:11:55.987Z,34.73
2018-03-02T10:14:24.376Z,35.21
2018-03-02T10:16:52.768Z,34.76
2018-03-02T10:19:21.209Z,35.92
2018-03-02T10:21:49.540Z,35.25
2018-03-02T10:24:17.917Z,35.00
2018-03-02T10:26:46.241Z,34.29
2018-03-02T10:29:14.931Z,34.09
2018-03-02T10:31:43.301Z,35.38
2018-03-02T10:34:11.678Z,35.68
2018-03-02T10:36:40.115Z,35.92
2018-03-02T10:39:08.454Z,36.03
2018-03-02T10:41:36.897Z,36.00
2018-03-02T10:44:05.225Z,34.61
2018-03-02T10:46:33.561Z,35.33
2018-03-02T10:49:01.911Z,34.88
2018-03-02T10:51:30.366Z,35.10
2018-03-02T10:53:58.747Z,34.63
2018-03-02T10:56:27.062Z,34.71
2018-03-02T10:58:55.406Z,35.18
2018-03-02T11:01:26.456Z,34.58
2018-03-02T11:04:00.336Z,35.04
2018-03-02T11:06:28.645Z,34.13
2018-03-02T11:08:57.301Z,33.48
2018-03-02T11:11:25.713Z,33.81
2018-03-02T11:13:54.049Z,33.65
2018-03-02T11:16:22.377Z,33.25
2018-03-02T11:18:50.705Z,34.00
2018-03-02T11:21:19.023Z,34.61
2018-03-02T11:23:47.514Z,33.78
2018-03-02T11:26:15.850Z,33.66
2018-03-02T11:28:44.295Z,35.10
2018-03-02T11:31:12.639Z,35.36
2018-03-02T11:33:41.012Z,34.54
2018-03-02T11:36:09.958Z,34.89
2018-03-02T11:38:38.372Z,35.05
2018-03-02T11:41:06.714Z,34.80
2018-03-02T11:43:35.087Z,34.97
2018-03-02T11:46:03.491Z,35.52
2018-03-02T11:48:31.908Z,35.65
2018-03-02T11:51:00.294Z,35.35
2018-03-02T11:53:28.613Z,35.33
2018-03-02T11:55:56.938Z,35.10
2018-03-02T11:58:25.271Z,34.56
2018-03-02T12:00:53.609Z,34.27
2018-03-02T12:03:21.960Z,33.84
2018-03-02T12:05:50.266Z,34.61
2018-03-02T12:08:18.618Z,35.11
2018-03-02T12:10:46.937Z,34.27
2018-03-02T12:13:15.306Z,34.71
2018-03-02T12:15:43.708Z,35.29
2018-03-02T12:18:12.030Z,34.96
2018-03-02T12:20:40.381Z,35.45
2018-03-02T12:23:08.758Z,35.60
2018-03-02T12:25:37.176Z,35.09
2018-03-02T12:28:05.480Z,35.29
2018-03-02T12:30:33.809Z,35.56
2018-03-02T12:33:02.292Z,34.94
2018-03-02T12:35:30.606Z,35.03
2018-03-02T12:37:59.038Z,35.34
2018-03-02T12:40:28.650Z,35.76
2018-03-02T12:42:57.071Z,36.56
2018-03-02T12:45:25.412Z,37.29
2018-03-02T12:47:53.741Z,38.17
2018-03-02T12:50:23.033Z,38.17
2018-03-02T12:52:51.434Z,38.21
2018-03-02T12:55:19.825Z,37.85
2018-03-02T12:57:48.206Z,37.41
2018-03-02T13:00:16.512Z,37.45
2018-03-02T13:02:44.892Z,37.34
2018-03-02T13:05:13.279Z,37.79
2018-03-02T13:07:41.670Z,37.76
2018-03-02T13:10:10.061Z,38.38
2018-03-02T13:12:38.392Z,37.83
2018-03-02T13:15:06.719Z,37.40
2018-03-02T13:17:35.146Z,37.60
2018-03-02T13:20:03.464Z,37.23
2018-03-02T13:22:40.762Z,37.61
2018-03-02T13:25:09.131Z,38.18
2018-03-02T13:27:49.402Z,38.27
2018-03-02T13:30:17.721Z,38.03
2018-03-02T13:35:45.072Z,38.41
2018-03-02T13:38:13.411Z,38.25
2018-03-02T13:40:53.677Z,38.39
2018-03-02T13:43:22.017Z,37.86
2018-03-02T13:45:50.904Z,38.02
2018-03-02T13:48:40.009Z,38.38
2018-03-02T13:51:08.438Z,38.28
2018-03-02T13:53:36.770Z,38.27
2018-03-02T13:56:05.088Z,37.76
2018-03-02T13:58:33.418Z,37.65
2018-03-02T14:01:01.732Z,37.78
2018-03-02T14:03:42.011Z,38.59
2018-03-02T14:06:10.343Z,38.87
2018-03-02T14:08:38.656Z,38.68
2018-03-02T14:11:07.022Z,38.48
2018-03-02T14:13:35.438Z,38.60
2018-03-02T14:16:03.747Z,38.69
2018-03-02T14:18:32.111Z,38.65
2018-03-02T14:21:00.444Z,39.01
2018-03-02T14:23:28.750Z,39.55
2018-03-02T14:25:57.100Z,39.77
2018-03-02T14:28:25.468Z,40.15
2018-03-02T14:30:53.803Z,40.31
2018-03-02T14:33:22.146Z,40.72
2018-03-02T14:35:50.704Z,41.46
2018-03-02T14:38:19.017Z,41.49
2018-03-02T14:40:47.339Z,41.11
2018-03-02T14:43:15.674Z,41.50
2018-03-02T14:45:44.132Z,41.98
2018-03-02T14:48:12.497Z,42.43
2018-03-02T14:50:40.858Z,42.64
2018-03-02T14:53:09.180Z,42.34
2018-03-02T14:55:37.536Z,42.39
2018-03-02T14:58:05.881Z,42.25
2018-03-02T15:00:34.248Z,42.45
2018-03-02T15:03:02.620Z,42.54
2018-03-02T15:05:31.039Z,42.19
2018-03-02T15:07:59.397Z,42.50
2018-03-02T15:10:27.833Z,42.64
2018-03-02T15:12:56.216Z,42.58
2018-03-02T15:15:24.579Z,42.67
2018-03-02T15:17:53.023Z,42.76
2018-03-02T15:20:21.504Z,43.14
2018-03-02T15:22:49.842Z,42.87
2018-03-02T15:25:18.181Z,43.00
2018-03-02T15:27:46.517Z,43.23
2018-03-02T15:30:14.913Z,43.08
2018-03-02T15:32:43.246Z,42.99
2018-03-02T15:35:11.588Z,42.99
2018-03-02T15:37:39.922Z,43.06
2018-03-02T15:40:08.249Z,43.26
2018-03-02T15:42:36.665Z,42.89
2018-03-02T15:45:05.011Z,43.07
2018-03-02T15:47:33.502Z,43.44
2018-03-02T15:50:01.862Z,43.40
2018-03-02T15:52:30.172Z,43.47
2018-03-02T15:54:58.506Z,43.38
2018-03-02T15:57:26.843Z,43.26
2018-03-02T15:59:55.282Z,43.24
2018-03-02T16:02:23.653Z,43.78
2018-03-02T16:04:51.999Z,43.67
2018-03-02T16:07:20.343Z,43.65
2018-03-02T16:09:48.687Z,43.83
2018-03-02T16:12:17.026Z,43.98
2018-03-02T16:14:45.371Z,44.18
2018-03-02T16:17:13.709Z,44.37
2018-03-02T16:19:42.076Z,44.23
2018-03-02T16:22:10.476Z,44.37
2018-03-02T16:24:38.813Z,44.50
2018-03-02T16:27:07.137Z,44.67
2018-03-02T16:29:35.470Z,44.72
2018-03-02T16:32:03.859Z,44.65
2018-03-02T16:34:32.200Z,44.58
2018-03-02T16:37:00.515Z,44.88
2018-03-02T16:39:28.860Z,44.87
2018-03-02T16:41:57.238Z,45.02
2018-03-02T16:44:25.663Z,44.95
2018-03-02T16:46:54.005Z,45.04
2018-03-02T16:49:22.386Z,45.08
2018-03-02T16:51:50.801Z,45.19
2018-03-02T16:54:19.277Z,45.21
2018-03-02T16:56:47.587Z,45.21
2018-03-02T16:59:15.964Z,44.94
2018-03-02T17:01:44.300Z,45.01
2018-03-02T17:04:12.687Z,45.27
2018-03-02T17:06:41.039Z,45.13
2018-03-02T17:09:09.366Z,44.91
2018-03-02T17:11:37.717Z,45.21
2018-03-02T17:14:06.050Z,45.29
2018-03-02T17:16:34.388Z,45.10
2018-03-02T17:19:02.710Z,45.12
2018-03-02T17:21:31.071Z,45.00
2018-03-02T17:23:59.416Z,45.32
2018-03-02T17:26:27.750Z,45.28
2018-03-02T17:28:56.078Z,45.20
2018-03-02T17:31:24.437Z,45.22
2018-03-02T17:33:52.769Z,44.88
2018-03-02T17:36:23.128Z,44.99
2018-03-02T17:38:56.491Z,45.23
2018-03-02T17:41:24.972Z,44.64
2018-03-02T17:43:53.452Z,44.47
2018-03-02T17:46:21.798Z,44.75
2018-03-02T17:48:50.159Z,44.59
2018-03-02T17:51:18.477Z,44.53
2018-03-02T17:53:46.829Z,44.75
2018-03-02T17:56:15.153Z,44.84
2018-03-02T17:58:43.487Z,45.11
2018-03-02T18:01:11.833Z,44.54
2018-03-02T18:03:40.166Z,44.71
2018-03-02T18:06:08.514Z,44.74
2018-03-02T18:08:36.845Z,44.65
2018-03-02T18:11:05.200Z,44.82
2018-03-02T18:13:33.567Z,44.68
2018-03-02T18:16:01.965Z,44.95
2018-03-02T18:18:30.299Z,44.56
2018-03-02T18:20:58.636Z,44.70
2018-03-02T18:23:26.986Z,44.42
2018-03-02T18:25:55.315Z,44.61
2018-03-02T18:28:23.719Z,44.86
2018-03-02T18:30:52.063Z,44.76
2018-03-02T18:33:20.410Z,44.81
2018-03-02T18:35:48.728Z,44.82
2018-03-02T18:38:17.836Z,45.02
2018-03-02T18:40:46.160Z,45.00
2018-03-02T18:43:14.517Z,45.24
2018-03-02T18:45:42.846Z,45.29
2018-03-02T18:48:11.250Z,45.17
2018-03-02T18:50:39.642Z,44.93
2018-03-02T18:53:08.034Z,44.82
2018-03-02T18:55:36.364Z,44.97
2018-03-02T18:58:04.697Z,44.70
2018-03-02T19:00:33.109Z,44.93
2018-03-02T19:03:01.501Z,44.82
2018-03-02T19:05:29.833Z,45.00
2018-03-02T19:07:58.167Z,44.93
2018-03-02T19:10:26.612Z,45.25
2018-03-02T19:12:54.982Z,45.20
2018-03-02T19:15:23.386Z,45.21
2018-03-02T19:17:51.918Z,44.97
2018-03-02T19:20:20.253Z,45.25
2018-03-02T19:22:48.643Z,45.31
2018-03-02T19:25:17.007Z,45.72
2018-03-02T19:27:45.425Z,45.38
2018-03-02T19:30:13.777Z,45.51
2018-03-02T19:32:42.107Z,45.40
2018-03-02T19:35:10.474Z,45.38
2018-03-02T19:37:38.798Z,45.36
2018-03-02T19:40:07.135Z,45.41
2018-03-02T19:42:35.466Z,45.70
2018-03-02T19:45:03.859Z,46.09
2018-03-02T19:47:32.275Z,45.98
2018-03-02T19:50:00.617Z,45.81
2018-03-02T19:52:28.966Z,45.86
2018-03-02T19:54:57.344Z,46.43
2018-03-02T19:57:25.698Z,45.96
2018-03-02T19:59:54.045Z,46.33
2018-03-02T20:02:22.397Z,46.40
2018-03-02T20:04:50.725Z,46.82
2018-03-02T20:07:19.185Z,46.80
2018-03-02T20:09:47.506Z,46.95
2018-03-02T20:12:15.898Z,46.68
2018-03-02T20:14:44.210Z,47.19
2018-03-02T20:17:12.713Z,47.43
2018-03-02T20:19:41.049Z,47.25
2018-03-02T20:22:09.436Z,47.21
2018-03-02T20:24:37.830Z,47.26
2018-03-02T20:27:06.216Z,47.11
2018-03-02T20:29:34.623Z,47.58
2018-03-02T20:32:02.948Z,47.37
2018-03-02T20:34:31.300Z,47.74
2018-03-02T20:36:59.670Z,47.56
2018-03-02T20:39:28.095Z,47.58
2018-03-02T20:41:56.501Z,47.65
2018-03-02T20:44:24.831Z,47.84
2018-03-02T20:46:53.212Z,47.89
2018-03-02T20:49:21.544Z,47.91
2018-03-02T20:51:49.947Z,48.38
2018-03-02T20:54:18.282Z,48.14
2018-03-02T20:56:46.629Z,48.38
2018-03-02T20:59:14.973Z,48.56
2018-03-02T21:01:43.295Z,48.24
2018-03-02T21:04:11.701Z,48.55
2018-03-02T21:06:40.045Z,48.83
2018-03-02T21:09:08.385Z,48.68
2018-03-02T21:11:36.720Z,48.98
2018-03-02T21:14:05.068Z,48.95
2018-03-02T21:16:33.391Z,48.85
2018-03-02T21:19:01.713Z,48.80
2018-03-02T21:21:30.038Z,49.16
2018-03-02T21:23:58.568Z,48.99
2018-03-02T21:26:26.911Z,48.91
2018-03-02T21:28:55.299Z,48.73
2018-03-02T21:31:23.627Z,48.58
2018-03-02T21:33:52.041Z,48.87
2018-03-02T21:36:20.514Z,48.63
2018-03-02T21:38:48.847Z,48.51
2018-03-02T21:41:17.186Z,48.44
2018-03-02T21:43:45.604Z,48.44
2018-03-02T21:46:13.929Z,48.58
2018-03-02T21:48:42.249Z,48.55
2018-03-02T21:51:10.595Z,48.81
2018-03-02T21:53:38.935Z,48.67
2018-03-02T21:56:07.383Z,48.85
2018-03-02T21:58:35.691Z,48.67
2018-03-02T22:01:04.025Z,48.73
2018-03-02T22:03:32.361Z,48.68
2018-03-02T22:06:00.692Z,48.92
2018-03-02T22:08:29.124Z,48.78
2018-03-02T22:10:57.485Z,48.89
2018-03-02T22:13:26.923Z,48.98
2018-03-02T22:15:55.264Z,49.37
2018-03-02T22:18:23.914Z,49.28
2018-03-02T22:20:52.297Z,49.35
2018-03-02T22:23:20.748Z,49.37
2018-03-02T22:25:49.184Z,49.20
2018-03-02T22:28:17.511Z,49.39
2018-03-02T22:30:45.853Z,49.26
2018-03-02T22:33:14.288Z,49.53
2018-03-02T22:35:42.605Z,49.57
2018-03-02T22:38:11.027Z,50.00
2018-03-02T22:40:39.361Z,49.70
2018-03-02T22:43:07.686Z,49.97
2018-03-02T22:45:36.090Z,50.22
2018-03-02T22:48:04.408Z,50.63
2018-03-02T22:50:32.741Z,50.57
2018-03-02T22:53:01.115Z,50.72
2018-03-02T22:55:29.460Z,50.73
2018-03-02T22:57:57.856Z,51.22
2018-03-02T23:00:26.196Z,51.32
2018-03-02T23:02:54.977Z,51.31
2018-03-02T23:05:23.315Z,51.45
2018-03-02T23:07:51.670Z,52.01
2018-03-02T23:10:20.028Z,52.27
2018-03-02T23:12:48.354Z,52.72
2018-03-02T23:15:16.704Z,53.12
2018-03-02T23:17:45.100Z,52.93
2018-03-02T23:20:13.433Z,52.92
2018-03-02T23:22:41.785Z,53.07
2018-03-02T23:25:10.118Z,53.24
2018-03-02T23:27:38.450Z,53.43
2018-03-02T23:30:06.887Z,53.43
2018-03-02T23:32:35.239Z,53.71
2018-03-02T23:35:03.548Z,53.60
2018-03-02T23:37:31.935Z,54.15
2018-03-02T23:40:00.299Z,53.96
2018-03-02T23:42:28.727Z,53.79
2018-03-02T23:44:57.108Z,53.75
2018-03-02T23:47:25.469Z,54.14
2018-03-02T23:49:53.885Z,54.00
2018-03-02T23:52:23.460Z,54.11
2018-03-02T23:54:51.810Z,54.17
2018-03-02T23:57:20.157Z,54.07
2018-03-02T23:59:48.578Z,54.21
